ADDS METAR Data INFO
IDs: Format: Raw Decoded Include TAF

Data at: 1115 UTC 17 Jul 2018

KTOB 171055Z AUTO 00000KT 10SM CLR 16/13 A3012 RMK AO2
KTOB 171035Z AUTO 00000KT 10SM CLR 16/13 A3011 RMK AO2
KTOB 171015Z AUTO 00000KT 10SM CLR 16/13 A3011 RMK AO2
KTOB 170955Z AUTO 00000KT 10SM CLR 16/13 A3010 RMK AO2
KTOB 170935Z AUTO 00000KT 10SM CLR 16/13 A3010 RMK AO2
KTOB 170915Z AUTO 00000KT 10SM SCT100 17/13 A3010 RMK AO2
KTOB 170855Z AUTO 00000KT 10SM CLR 17/14 A3010 RMK AO2
KTOB 170835Z AUTO 00000KT 10SM SCT090 17/14 A3010 RMK AO2
KTOB 170815Z AUTO 00000KT 10SM CLR 17/14 A3009 RMK AO2
KTOB 170755Z AUTO 00000KT 10SM CLR 17/14 A3008 RMK AO2
KTOB 170735Z AUTO 00000KT 10SM CLR 18/15 A3009 RMK AO2
KTOB 170715Z AUTO 00000KT 10SM CLR 18/14 A3010 RMK AO2
KTOB 170655Z AUTO 00000KT 10SM CLR 18/14 A3009 RMK AO2
KTOB 170635Z AUTO 00000KT 10SM CLR 18/14 A3009 RMK AO2
KTOB 170615Z AUTO 00000KT 10SM SCT060 18/15 A3008 RMK AO2
KTOB 170555Z AUTO 00000KT 10SM SCT060 18/16 A3008 RMK AO2
KTOB 170535Z AUTO 00000KT 10SM CLR 18/15 A3008 RMK AO2
KTOB 170515Z AUTO 00000KT 10SM CLR 18/15 A3007 RMK AO2
KTOB 170455Z AUTO 00000KT 10SM CLR 18/15 A3007 RMK AO2
KTOB 170436Z AUTO 00000KT CLR 18/15 A3007 RMK AO2
KTOB 170415Z AUTO 00000KT 10SM CLR 18/15 A3007 RMK AO2
KTOB 170355Z AUTO 00000KT 10SM CLR 18/16 A3007 RMK AO2
KTOB 170335Z AUTO 00000KT 10SM CLR 19/16 A3007 RMK AO2
KTOB 170315Z AUTO 00000KT 10SM CLR 19/16 A3007 RMK AO2
KTOB 170255Z AUTO 00000KT 10SM CLR 19/16 A3006 RMK AO2
KTOB 170235Z AUTO 00000KT 10SM CLR 20/17 A3006 RMK AO2
KTOB 170215Z AUTO 00000KT 10SM CLR 21/17 A3005 RMK AO2
KTOB 170155Z AUTO 00000KT 10SM CLR 21/17 A3004 RMK AO2
KTOB 170135Z AUTO 00000KT 10SM CLR 23/16 A3004 RMK AO2
KTOB 170115Z AUTO 00000KT 10SM CLR 24/14 A3003 RMK AO2
KTOB 170055Z AUTO 00000KT 10SM CLR 25/15 A3004 RMK AO2
KTOB 170035Z AUTO 00000KT 10SM CLR 26/14 A3004 RMK AO2
KTOB 170015Z AUTO 31006KT 10SM CLR 26/13 A3004 RMK AO2
KTOB 162355Z AUTO 29007KT 10SM CLR 26/13 A3004 RMK AO2
KTOB 162335Z AUTO 30003KT 10SM CLR 26/13 A3005 RMK AO2
KTOB 162315Z AUTO 29008KT 10SM CLR 27/13 A3005 RMK AO2
KTOB 162255Z AUTO 28010KT 10SM CLR 27/13 A3005 RMK AO2
KTOB 162235Z AUTO 30008KT 10SM CLR 27/13 A3005 RMK AO2
KTOB 162215Z AUTO 29008KT 10SM CLR 27/13 A3006 RMK AO2
KTOB 162155Z AUTO 29006G09KT 10SM CLR 27/13 A3006 RMK AO2
KTOB 162135Z AUTO 28008KT 10SM CLR 27/13 A3006 RMK AO2
KTOB 162115Z AUTO 30008KT 10SM CLR 27/14 A3006 RMK AO2
KTOB 162055Z AUTO 30007KT 10SM CLR 27/13 A3006 RMK AO2
KTOB 162035Z AUTO 30010KT 240V330 10SM CLR 27/13 A3006 RMK AO2
KTOB 162015Z AUTO 31007KT 10SM CLR 27/13 A3007 RMK AO2
KTOB 161955Z AUTO 30008KT 10SM CLR 27/13 A3007 RMK AO2
KTOB 161935Z AUTO 30007KT 10SM CLR 26/12 A3007 RMK AO2
KTOB 161915Z AUTO 28005KT 10SM CLR 26/12 A3007 RMK AO2
KTOB 161855Z AUTO 31006KT 10SM CLR 27/13 A3008 RMK AO2
KTOB 161835Z AUTO 35004KT 10SM CLR 26/11 A3008 RMK AO2
KTOB 161815Z AUTO 36004KT 10SM CLR 26/12 A3008 RMK AO2
KTOB 161755Z AUTO 31003KT 10SM CLR 26/12 A3008 RMK AO2
KTOB 161735Z AUTO 32003KT 10SM CLR 26/12 A3009 RMK AO2
KTOB 161715Z AUTO 33003KT 10SM CLR 25/12 A3009 RMK AO2
KTOB 161655Z AUTO 32007KT 10SM CLR 24/11 A3009 RMK AO2
KTOB 161635Z AUTO 29006KT 10SM CLR 24/12 A3009 RMK AO2
KTOB 161615Z AUTO 33005KT 10SM CLR 24/12 A3009 RMK AO2
KTOB 161555Z AUTO 33006KT 10SM CLR 24/12 A3009 RMK AO2
KTOB 161535Z AUTO 31004KT 10SM CLR 23/12 A3008 RMK AO2
KTOB 161515Z AUTO 32005KT 10SM CLR 23/13 A3009 RMK AO2
KTOB 161455Z AUTO 31004KT 10SM CLR 23/13 A3008 RMK AO2
KTOB 161435Z AUTO 31006KT 10SM CLR 22/14 A3008 RMK AO2
KTOB 161415Z AUTO 32004KT 10SM CLR 22/14 A3008 RMK AO2
KTOB 161355Z AUTO 31004KT 10SM CLR 21/14 A3008 RMK AO2
KTOB 161335Z AUTO 32006KT 10SM CLR 21/14 A3008 RMK AO2
KTOB 161315Z AUTO 32006KT 10SM CLR 20/14 A3007 RMK AO2
KTOB 161255Z AUTO 33005KT 10SM CLR 19/14 A3007 RMK AO2
KTOB 161235Z AUTO 33005KT 10SM CLR 19/15 A3006 RMK AO2
KTOB 161215Z AUTO 32006KT 10SM CLR 18/14 A3006 RMK AO2
KTOB 161155Z AUTO 31007KT 10SM CLR 18/14 A3006 RMK AO2
KTOB 161135Z AUTO 31006KT 10SM CLR 18/14 A3006 RMK AO2
KTOB 161115Z AUTO 30006KT 10SM CLR 17/14 A3006 RMK AO2
KTOB 161055Z AUTO 31006KT 10SM CLR 17/14 A3005 RMK AO2
KTOB 161035Z AUTO 31005KT 10SM CLR 17/15 A3005 RMK AO2
KTOB 161015Z AUTO 00000KT 10SM CLR 18/15 A3005 RMK AO2
KTOB 160955Z AUTO 00000KT 10SM CLR 17/16 A3005 RMK AO2
KTOB 160935Z AUTO 00000KT 10SM CLR 18/16 A3004 RMK AO2
KTOB 160915Z AUTO 00000KT 10SM CLR 18/15 A3004 RMK AO2
KTOB 160855Z AUTO 32005KT 10SM CLR 18/14 A3004 RMK AO2
KTOB 160835Z AUTO 33007KT 10SM CLR 19/14 A3004 RMK AO2
KTOB 160815Z AUTO 33006KT 10SM CLR 19/15 A3004 RMK AO2
KTOB 160755Z AUTO 33007KT 10SM CLR 19/17 A3004 RMK AO2
KTOB 160735Z AUTO 00000KT 10SM CLR 19/18 A3004 RMK AO2
KTOB 160715Z AUTO 32006KT 10SM CLR 20/18 A3003 RMK AO2
KTOB 160655Z AUTO 32005KT 10SM CLR 20/18 A3003 RMK AO2
KTOB 160635Z AUTO 32008KT 10SM CLR 21/18 A3003 RMK AO2
KTOB 160615Z AUTO 00000KT 10SM CLR 21/18 A3003 RMK AO2
KTOB 160555Z AUTO 32003KT 10SM CLR 21/18 A3002 RMK AO2
KTOB 160535Z AUTO 32008KT 10SM CLR 21/18 A3002 RMK AO2
KTOB 160515Z AUTO 31005KT 10SM CLR 22/18 A3002 RMK AO2
KTOB 160455Z AUTO 31008KT 10SM CLR 22/19 A3002 RMK AO2
KTOB 160435Z AUTO 31007KT 10SM CLR 22/19 A3001 RMK AO2
KTOB 160415Z AUTO 31008KT 10SM CLR 23/20 A3001 RMK AO2
KTOB 160355Z AUTO 31007KT 10SM CLR 23/21 A3000 RMK AO2
KTOB 160335Z AUTO 00000KT 10SM CLR 23/21 A3000 RMK AO2
KTOB 160315Z AUTO 30007KT 10SM CLR 24/21 A3000 RMK AO2
KTOB 160255Z AUTO 30007KT 10SM CLR 24/20 A3000 RMK AO2
KTOB 160235Z AUTO 28006KT 10SM CLR 24/19 A2999 RMK AO2
KTOB 160215Z AUTO 28007KT 10SM CLR 25/19 A2999 RMK AO2
KTOB 160155Z AUTO 28005KT 10SM CLR 25/19 A2998 RMK AO2
KTOB 160135Z AUTO 28006KT 10SM CLR 26/19 A2998 RMK AO2
KTOB 160115Z AUTO 28005KT 10SM CLR 27/19 A2997 RMK AO2
KTOB 160055Z AUTO 29006KT 10SM CLR 27/19 A2998 RMK AO2
KTOB 160035Z AUTO 30005KT 10SM CLR 27/20 A2998 RMK AO2
KTOB 160015Z AUTO 29007KT 10SM CLR 27/19 A2998 RMK AO2
KTOB 152355Z AUTO 30006KT 10SM CLR 28/18 A2998 RMK AO2
KTOB 152335Z AUTO 29010KT 10SM CLR 28/19 A2998 RMK AO2